createdAt,value
2017-12-10T05:05:35.079Z,4.30
2017-12-10T05:08:09.706Z,7.25
2017-12-10T05:10:46.048Z,4.37
2017-12-10T05:13:23.679Z,3.60
2017-12-10T05:16:04.454Z,7.15
2017-12-10T05:18:43.360Z,8.52
2017-12-10T05:21:20.009Z,7.37
2017-12-10T05:24:06.061Z,5.55
2017-12-10T05:26:50.633Z,4.97
2017-12-10T05:29:23.392Z,3.42
2017-12-10T05:31:54.385Z,12.63
2017-12-10T05:37:12.896Z,6.45
2017-12-10T05:39:51.109Z,3.92
2017-12-10T05:42:24.364Z,9.13
2017-12-10T05:44:57.591Z,4.97
2017-12-10T05:47:37.408Z,5.50
2017-12-10T05:50:11.393Z,7.55
2017-12-10T05:52:45.709Z,4.50
2017-12-10T05:55:17.630Z,3.53
2017-12-10T05:57:50.140Z,7.75
2017-12-10T06:00:23.805Z,4.80
2017-12-10T06:03:05.387Z,4.40
2017-12-10T06:05:45.149Z,6.00
2017-12-10T06:08:15.814Z,4.12
2017-12-10T06:10:47.138Z,5.97
2017-12-10T06:13:31.484Z,6.60
2017-12-10T06:16:01.852Z,5.68
2017-12-10T06:18:34.015Z,6.18
2017-12-10T06:21:04.209Z,4.53
2017-12-10T06:23:34.983Z,5.28
2017-12-10T06:26:06.662Z,4.43
2017-12-10T06:28:34.922Z,5.10
2017-12-10T06:31:06.174Z,5.43
2017-12-10T06:33:36.902Z,4.03
2017-12-10T06:36:15.823Z,5.75
2017-12-10T06:38:47.293Z,7.05
2017-12-10T06:41:15.542Z,9.55
2017-12-10T06:43:43.777Z,5.87
2017-12-10T06:46:16.736Z,7.72
2017-12-10T06:48:44.922Z,6.05
2017-12-10T06:51:16.880Z,8.60
2017-12-10T06:53:46.820Z,5.43
2017-12-10T06:56:25.818Z,7.05
2017-12-10T06:58:56.860Z,8.77
2017-12-10T07:01:28.475Z,9.65
2017-12-10T07:03:58.953Z,4.93
2017-12-10T07:06:31.496Z,8.55
2017-12-10T07:09:03.101Z,8.68
2017-12-10T07:11:36.261Z,6.53
2017-12-10T07:14:17.143Z,10.25
2017-12-10T07:16:54.839Z,8.25
2017-12-10T07:19:26.659Z,9.02
2017-12-10T07:21:59.196Z,6.78
2017-12-10T07:24:41.396Z,8.35
2017-12-10T07:27:13.741Z,8.10
2017-12-10T07:29:46.138Z,7.25
2017-12-10T07:32:17.588Z,9.50
2017-12-10T07:34:48.083Z,8.38
2017-12-10T07:37:20.767Z,9.18
2017-12-10T07:39:49.709Z,10.27
2017-12-10T07:42:30.571Z,13.07
2017-12-10T07:45:02.350Z,6.53
2017-12-10T07:47:36.221Z,12.60
2017-12-10T07:50:04.438Z,6.70
2017-12-10T07:52:34.555Z,11.98
2017-12-10T07:55:04.448Z,12.00
2017-12-10T07:57:45.744Z,8.10
2017-12-10T08:00:19.701Z,9.70
2017-12-10T08:02:50.212Z,9.73
2017-12-10T08:05:23.076Z,10.50
2017-12-10T08:07:52.887Z,10.07
2017-12-10T08:10:28.343Z,13.38
2017-12-10T08:15:33.855Z,11.75
2017-12-10T08:18:11.621Z,11.55
2017-12-10T08:20:43.177Z,12.15
2017-12-10T08:23:24.759Z,10.50
2017-12-10T08:26:08.604Z,11.68
2017-12-10T08:28:53.644Z,9.13
2017-12-10T08:31:24.058Z,17.77
2017-12-10T08:34:04.905Z,11.32
2017-12-10T08:36:33.069Z,14.25
2017-12-10T08:39:10.811Z,10.73
2017-12-10T08:45:04.095Z,13.70
2017-12-10T08:47:42.943Z,9.88
2017-12-10T08:56:18.828Z,9.82
2017-12-10T08:59:01.498Z,10.82
2017-12-10T09:01:53.416Z,10.05
2017-12-10T09:10:08.950Z,8.57
2017-12-10T09:13:10.605Z,11.38
2017-12-10T09:15:58.072Z,10.27
2017-12-10T09:18:38.642Z,10.75
2017-12-10T09:21:16.322Z,12.00
2017-12-10T09:24:05.970Z,10.15
2017-12-10T09:26:44.078Z,12.88
2017-12-10T09:29:32.818Z,10.13
2017-12-10T09:32:12.870Z,8.50
2017-12-10T09:37:57.104Z,9.20
2017-12-10T09:40:48.723Z,9.05
2017-12-10T09:49:01.409Z,10.15
2017-12-10T09:51:32.939Z,9.30
2017-12-10T09:57:17.256Z,9.43
2017-12-10T09:59:53.694Z,8.85
2017-12-10T10:02:29.931Z,7.18
2017-12-10T10:05:05.606Z,10.45
2017-12-10T10:10:23.355Z,8.18
2017-12-10T10:13:06.786Z,9.00
2017-12-10T10:15:40.790Z,10.68
2017-12-10T10:18:11.689Z,9.25
2017-12-10T10:20:53.251Z,11.43
2017-12-10T10:26:09.092Z,8.57
2017-12-10T10:28:41.695Z,11.93
2017-12-10T10:31:23.592Z,17.25
2017-12-10T10:33:58.127Z,9.07
2017-12-10T10:39:09.846Z,9.00
2017-12-10T10:41:47.478Z,15.85
2017-12-10T10:44:26.302Z,9.70
2017-12-10T10:47:16.352Z,10.80
2017-12-10T10:50:04.254Z,14.32
2017-12-10T10:52:49.234Z,9.40
2017-12-10T10:55:48.249Z,9.70
2017-12-10T10:58:24.597Z,11.18
2017-12-10T11:01:14.202Z,7.03
2017-12-10T11:04:00.487Z,6.35
2017-12-10T11:06:37.256Z,7.70
2017-12-10T11:09:11.570Z,8.40
2017-12-10T11:11:54.031Z,5.40
2017-12-10T11:14:40.605Z,14.80
2017-12-10T11:17:33.015Z,7.03
2017-12-10T11:20:32.274Z,5.82
2017-12-10T11:23:09.286Z,9.18
2017-12-10T11:25:41.329Z,8.35
2017-12-10T11:28:20.679Z,5.93
2017-12-10T11:30:56.250Z,11.43
2017-12-10T11:33:44.211Z,7.00
2017-12-10T11:36:17.163Z,11.10
2017-12-10T11:39:01.520Z,8.27
2017-12-10T11:41:34.021Z,5.45
2017-12-10T11:44:20.574Z,4.43
2017-12-10T11:47:00.899Z,5.28
2017-12-10T11:49:39.961Z,7.15
2017-12-10T11:52:12.844Z,7.05
2017-12-10T11:54:59.490Z,4.90
2017-12-10T11:57:44.330Z,6.32
2017-12-10T12:00:17.926Z,8.73
2017-12-10T12:02:50.253Z,8.50
2017-12-10T12:05:26.619Z,6.97
2017-12-10T12:08:03.336Z,4.00
2017-12-10T12:10:42.214Z,6.43
2017-12-10T12:13:15.310Z,8.63
2017-12-10T12:15:55.395Z,6.85
2017-12-10T12:18:27.214Z,6.78
2017-12-10T12:21:04.649Z,13.38
2017-12-10T12:23:38.963Z,10.88
2017-12-10T12:34:26.768Z,5.53
2017-12-10T12:37:03.660Z,9.82
2017-12-10T12:39:42.405Z,7.07
2017-12-10T12:45:18.594Z,5.43
2017-12-10T12:47:53.114Z,7.07
2017-12-10T12:50:36.643Z,6.60
2017-12-10T12:53:32.889Z,6.00
2017-12-10T13:01:40.472Z,13.00
2017-12-10T13:04:29.350Z,8.75
2017-12-10T13:09:54.996Z,6.30
2017-12-10T13:15:44.439Z,9.50
2017-12-10T13:18:35.489Z,6.87
2017-12-10T13:21:27.893Z,7.30
2017-12-10T13:24:03.028Z,12.05
2017-12-10T13:26:46.018Z,9.38
2017-12-10T13:29:28.815Z,7.85
2017-12-10T13:35:11.606Z,8.18
2017-12-10T13:53:26.136Z,11.68
2017-12-10T13:56:08.790Z,10.07
2017-12-10T14:04:59.489Z,14.43
2017-12-10T14:07:29.891Z,9.70
2017-12-10T14:09:58.242Z,11.80
2017-12-10T14:12:26.379Z,10.40
2017-12-10T14:14:56.145Z,15.13
2017-12-10T14:17:24.335Z,15.80
2017-12-10T14:19:57.386Z,16.15
2017-12-10T14:22:25.562Z,11.20
2017-12-10T14:24:53.749Z,8.80
2017-12-10T14:27:22.638Z,9.40
2017-12-10T14:29:51.019Z,12.82
2017-12-10T14:32:20.389Z,12.57
2017-12-10T14:35:02.210Z,17.00
2017-12-10T14:37:30.309Z,12.70
2017-12-10T14:39:58.424Z,12.00
2017-12-10T14:42:28.833Z,11.30
2017-12-10T14:44:56.977Z,14.00
2017-12-10T14:47:25.217Z,11.10
2017-12-10T14:49:54.557Z,12.37
2017-12-10T14:52:22.867Z,10.90
2017-12-10T14:54:51.114Z,9.02
2017-12-10T14:57:21.200Z,13.20
2017-12-10T14:59:50.660Z,8.65
2017-12-10T15:02:20.832Z,8.52
2017-12-10T15:04:52.370Z,11.43
2017-12-10T15:07:20.681Z,30.70
2017-12-10T15:09:49.775Z,19.00
2017-12-10T15:12:19.544Z,13.50
2017-12-10T15:14:58.834Z,9.50
2017-12-10T15:17:27.977Z,7.72
2017-12-10T15:19:57.599Z,7.40
2017-12-10T15:22:26.970Z,8.48
2017-12-10T15:24:56.096Z,7.15
2017-12-10T15:27:24.368Z,10.60
2017-12-10T15:29:52.686Z,8.95
2017-12-10T15:32:21.191Z,12.15
2017-12-10T15:34:49.440Z,9.55
2017-12-10T15:37:19.004Z,6.72
2017-12-10T15:39:48.309Z,8.57
2017-12-10T15:42:16.776Z,9.27
2017-12-10T15:44:45.471Z,8.88
2017-12-10T15:47:14.447Z,7.62
2017-12-10T15:49:42.788Z,7.72
2017-12-10T15:52:11.267Z,27.85
2017-12-10T15:54:43.187Z,8.48
2017-12-10T15:57:12.482Z,6.65
2017-12-10T15:59:42.002Z,7.32
2017-12-10T16:02:12.453Z,7.72
2017-12-10T16:04:41.935Z,8.70
2017-12-10T16:07:21.266Z,10.40
2017-12-10T16:09:49.877Z,8.68
2017-12-10T16:12:28.258Z,8.45
2017-12-10T16:14:57.027Z,8.10
2017-12-10T16:17:35.351Z,9.88
2017-12-10T16:20:03.832Z,7.60
2017-12-10T16:22:33.239Z,8.27
2017-12-10T16:25:02.631Z,8.75
2017-12-10T16:27:32.271Z,7.95
2017-12-10T16:30:03.872Z,9.52
2017-12-10T16:32:33.787Z,9.90
2017-12-10T16:35:03.954Z,8.43
2017-12-10T16:37:33.928Z,9.98
2017-12-10T16:40:02.466Z,11.70
2017-12-10T16:42:31.057Z,7.80
2017-12-10T16:44:59.592Z,9.57
2017-12-10T16:47:28.771Z,9.68
2017-12-10T16:50:00.849Z,11.35
2017-12-10T16:52:30.149Z,12.00
2017-12-10T16:54:58.495Z,14.52
2017-12-10T16:57:27.047Z,14.82
2017-12-10T16:59:55.366Z,12.37
2017-12-10T17:02:24.337Z,13.23
2017-12-10T17:04:52.556Z,12.68
2017-12-10T17:07:20.927Z,11.93
2017-12-10T17:09:49.246Z,11.27
2017-12-10T17:12:17.551Z,60.45
2017-12-10T17:14:45.740Z,39.75
2017-12-10T17:17:13.938Z,27.85
2017-12-10T17:19:42.332Z,20.62
2017-12-10T17:22:11.403Z,21.15
2017-12-10T17:24:39.647Z,22.35
2017-12-10T17:27:07.846Z,18.42
2017-12-10T17:29:36.077Z,25.52
2017-12-10T17:32:04.336Z,18.52
2017-12-10T17:34:33.429Z,19.70
2017-12-10T17:37:02.912Z,21.55
2017-12-10T17:39:31.362Z,29.67
2017-12-10T17:41:59.573Z,21.67
2017-12-10T17:44:27.933Z,24.17
2017-12-10T17:46:56.132Z,21.40
2017-12-10T17:49:25.182Z,17.10
2017-12-10T17:51:53.367Z,16.27
2017-12-10T17:54:21.705Z,17.55
2017-12-10T17:56:50.258Z,20.05
2017-12-10T17:59:19.406Z,18.10
2017-12-10T18:01:48.616Z,20.37
2017-12-10T18:04:18.949Z,17.37
2017-12-10T18:06:47.358Z,19.60
2017-12-10T18:09:15.919Z,18.98
2017-12-10T18:11:44.173Z,22.10
2017-12-10T18:14:12.353Z,18.85
2017-12-10T18:16:40.603Z,21.70
2017-12-10T18:19:08.847Z,23.10
2017-12-10T18:21:37.127Z,22.52
2017-12-10T18:24:05.625Z,24.27
2017-12-10T18:26:34.666Z,34.20
2017-12-10T18:29:02.968Z,38.65
2017-12-10T18:31:31.250Z,38.53
2017-12-10T18:34:00.309Z,25.35
2017-12-10T18:36:28.550Z,30.98
2017-12-10T18:38:56.842Z,25.17
2017-12-10T18:41:25.333Z,38.13
2017-12-10T18:43:53.711Z,34.35
2017-12-10T18:46:22.013Z,32.08
2017-12-10T18:48:50.324Z,34.55
2017-12-10T18:51:19.339Z,31.52
2017-12-10T18:53:47.626Z,20.02
2017-12-10T18:56:15.839Z,16.48
2017-12-10T18:58:54.031Z,17.30
2017-12-10T19:01:22.250Z,15.75
2017-12-10T19:03:50.403Z,15.35
2017-12-10T19:06:18.620Z,27.80
2017-12-10T19:08:47.484Z,26.98
2017-12-10T19:11:16.865Z,26.83
2017-12-10T19:13:45.369Z,23.60
2017-12-10T19:16:14.506Z,28.15
2017-12-10T19:18:45.179Z,22.17
2017-12-10T19:21:13.838Z,27.13
2017-12-10T19:23:43.991Z,19.08
2017-12-10T19:26:12.161Z,17.87
2017-12-10T19:28:40.722Z,22.35
2017-12-10T19:31:09.010Z,18.33
2017-12-10T19:33:37.153Z,20.88
2017-12-10T19:36:16.184Z,26.70
2017-12-10T19:38:44.324Z,33.85
2017-12-10T19:41:12.497Z,26.73
2017-12-10T19:43:40.676Z,27.92
2017-12-10T19:46:08.918Z,26.67
2017-12-10T19:48:37.116Z,26.10
2017-12-10T19:51:05.410Z,30.30
2017-12-10T19:53:34.577Z,28.17
2017-12-10T19:56:02.920Z,22.35
2017-12-10T19:58:31.202Z,26.52
2017-12-10T20:00:59.442Z,22.98
2017-12-10T20:03:28.845Z,24.98
2017-12-10T20:05:57.100Z,26.50
2017-12-10T20:08:26.284Z,23.10
2017-12-10T20:10:54.646Z,26.73
2017-12-10T20:13:22.938Z,24.90
2017-12-10T20:15:51.422Z,23.90
2017-12-10T20:18:19.657Z,22.73
2017-12-10T20:20:47.938Z,38.50
2017-12-10T20:23:16.207Z,28.80
2017-12-10T20:25:44.420Z,30.95
2017-12-10T20:28:13.506Z,31.80
2017-12-10T20:30:41.747Z,24.33
2017-12-10T20:33:14.448Z,34.08
2017-12-10T20:35:45.496Z,21.73
2017-12-10T20:38:15.144Z,21.92
2017-12-10T20:40:43.544Z,16.17
2017-12-10T20:43:13.569Z,13.73
2017-12-10T20:45:43.119Z,11.23
2017-12-10T20:48:11.919Z,11.35
2017-12-10T20:50:40.922Z,9.00
2017-12-10T20:53:10.022Z,15.18
2017-12-10T20:55:38.361Z,12.52
2017-12-10T20:58:07.525Z,12.35
2017-12-10T21:00:38.784Z,9.65
2017-12-10T21:03:07.584Z,10.93
2017-12-10T21:05:36.025Z,11.85
2017-12-10T21:08:04.466Z,11.82
2017-12-10T21:10:33.467Z,12.25
2017-12-10T21:13:02.839Z,10.88
2017-12-10T21:15:31.881Z,12.07
2017-12-10T21:18:00.072Z,12.40
2017-12-10T21:20:28.239Z,16.40
2017-12-10T21:22:56.395Z,15.55
2017-12-10T21:25:24.563Z,18.83
2017-12-10T21:27:52.792Z,15.55
2017-12-10T21:30:20.882Z,13.93
2017-12-10T21:32:49.797Z,14.30
2017-12-10T21:35:18.078Z,18.27
2017-12-10T21:37:46.272Z,15.88
2017-12-10T21:40:14.517Z,14.00
2017-12-10T21:42:42.611Z,13.57
2017-12-10T21:45:10.780Z,13.10
2017-12-10T21:47:38.940Z,12.57
2017-12-10T21:50:07.932Z,12.93
2017-12-10T21:52:36.125Z,9.68
2017-12-10T21:55:04.319Z,9.45
2017-12-10T21:57:32.526Z,10.52
2017-12-10T22:00:00.717Z,8.15
2017-12-10T22:02:28.898Z,16.58
2017-12-10T22:04:57.863Z,6.53
2017-12-10T22:07:26.149Z,5.87
2017-12-10T22:09:54.633Z,6.78
2017-12-10T22:12:24.092Z,5.75
2017-12-10T22:14:52.261Z,5.70
2017-12-10T22:17:21.233Z,6.05
2017-12-10T22:19:50.165Z,4.85
2017-12-10T22:22:18.464Z,4.95
2017-12-10T22:24:46.746Z,5.47
2017-12-10T22:27:15.027Z,7.53
2017-12-10T22:29:44.465Z,4.78
2017-12-10T22:32:12.687Z,6.75
2017-12-10T22:34:40.861Z,9.00
2017-12-10T22:37:09.118Z,7.05
2017-12-10T22:39:37.322Z,6.43
2017-12-10T22:42:05.531Z,4.10
2017-12-10T22:44:33.780Z,4.00
2017-12-10T22:47:02.446Z,3.58
2017-12-10T22:49:30.786Z,3.92
2017-12-10T22:51:59.205Z,4.05
2017-12-10T22:54:29.097Z,3.87
2017-12-10T22:56:57.478Z,3.67
2017-12-10T22:59:26.061Z,2.85
2017-12-10T23:01:54.235Z,3.55
2017-12-10T23:04:22.454Z,3.25
2017-12-10T23:06:50.710Z,4.30
2017-12-10T23:09:18.965Z,3.37
2017-12-10T23:11:47.128Z,2.72
2017-12-10T23:14:16.155Z,6.30
2017-12-10T23:16:44.394Z,10.82
2017-12-10T23:19:13.355Z,8.38
2017-12-10T23:21:41.642Z,3.87
2017-12-10T23:24:10.645Z,3.40
2017-12-10T23:26:38.870Z,3.12
2017-12-10T23:29:07.100Z,7.55
2017-12-10T23:31:45.279Z,13.93
2017-12-10T23:34:16.710Z,8.63
2017-12-10T23:36:45.619Z,7.40
2017-12-10T23:39:14.734Z,7.25
2017-12-10T23:41:53.003Z,5.35
2017-12-10T23:44:21.255Z,3.35
2017-12-10T23:46:49.494Z,3.30
2017-12-10T23:49:18.562Z,2.80
2017-12-10T23:51:56.726Z,2.75
2017-12-10T23:54:24.987Z,3.72
2017-12-10T23:56:53.241Z,3.15
2017-12-10T23:59:21.379Z,3.00
